Time;durP1;ratioP1;P1;durP2;ratioP2;P2;SDS_P1;SDS_P2;PMS_P1;PMS_P2;Temp;Humidity;BMP_temperature;BMP_pressure;BME280_temperature;BME280_humidity;BME280_pressure;Samples;Min_cycle;Max_cycle;Signal;HPM_P1;HPM_P2
2022/04/15 00:01:17;;;;;;;0.00;0.00;;;15.30;99.90;;;;;;5011383;28;20101;-62
2022/04/15 00:03:43;;;;;;;0.00;0.00;;;15.30;99.90;;;;;;5014124;28;20045;-63
2022/04/15 00:06:10;;;;;;;0.00;0.00;;;15.20;99.90;;;;;;5011717;28;20026;-62
2022/04/15 00:08:37;;;;;;;0.10;0.10;;;15.20;99.90;;;;;;5010980;28;20032;-61
2022/04/15 00:11:03;;;;;;;0.00;0.00;;;15.20;99.90;;;;;;5011293;28;20097;-61
2022/04/15 00:13:29;;;;;;;0.10;0.10;;;15.20;99.90;;;;;;5010053;28;20555;-61
2022/04/15 00:15:59;;;;;;;0.00;0.00;;;15.20;99.90;;;;;;5008710;28;20101;-62
2022/04/15 00:18:25;;;;;;;0.10;0.10;;;15.20;99.90;;;;;;5013627;28;20032;-63
2022/04/15 00:20:54;;;;;;;0.10;0.10;;;15.20;99.90;;;;;;5003401;28;20025;-63
2022/04/15 00:23:22;;;;;;;0.10;0.10;;;15.20;99.90;;;;;;5011841;28;20037;-62
2022/04/15 00:25:48;;;;;;;0.00;0.00;;;15.20;99.90;;;;;;5010415;28;20046;-62
2022/04/15 00:28:14;;;;;;;0.00;0.00;;;15.30;99.90;;;;;;5011714;28;20039;-61
2022/04/15 00:30:40;;;;;;;0.10;0.10;;;15.20;99.90;;;;;;4999824;28;20038;-63
2022/04/15 00:33:06;;;;;;;0.05;0.05;;;15.20;99.90;;;;;;4994094;28;20026;-62
2022/04/15 00:35:31;;;;;;;0.03;0.03;;;15.10;99.90;;;;;;5012268;28;20030;-62
2022/04/15 00:37:57;;;;;;;0.00;0.00;;;15.10;99.90;;;;;;5011574;28;20061;-63
2022/04/15 00:40:23;;;;;;;0.00;0.00;;;15.00;99.90;;;;;;5011191;28;20034;-62
2022/04/15 00:42:49;;;;;;;0.00;0.00;;;15.00;99.90;;;;;;5010777;28;20030;-62
2022/04/15 00:45:14;;;;;;;0.20;0.20;;;15.00;99.90;;;;;;5010774;28;20052;-62
2022/04/15 00:47:53;;;;;;;0.00;0.00;;;15.00;99.90;;;;;;4999667;28;20030;-62
2022/04/15 00:50:24;;;;;;;0.10;0.10;;;14.90;99.90;;;;;;5010141;28;20034;-63
2022/04/15 00:52:52;;;;;;;0.10;0.10;;;14.90;99.90;;;;;;5010083;28;20065;-61
2022/04/15 00:55:21;;;;;;;0.10;0.10;;;14.90;99.90;;;;;;5010181;28;20025;-63
2022/04/15 00:57:52;;;;;;;0.00;0.00;;;14.90;99.90;;;;;;5011064;28;20053;-62
2022/04/15 01:00:20;;;;;;;0.08;0.08;;;15.00;99.90;;;;;;5010023;28;20025;-63
2022/04/15 01:02:46;;;;;;;0.10;0.10;;;15.00;99.90;;;;;;5011678;28;20025;-62
2022/04/15 01:05:12;;;;;;;0.00;0.00;;;15.00;99.90;;;;;;5011029;28;20034;-62
2022/04/15 01:07:40;;;;;;;0.00;0.00;;;14.90;99.90;;;;;;5010763;28;20022;-62
2022/04/15 01:10:11;;;;;;;0.00;0.00;;;14.90;99.90;;;;;;5009383;28;20022;-63
2022/04/15 01:12:43;;;;;;;0.00;0.00;;;14.90;99.90;;;;;;5010049;28;20040;-61
2022/04/15 01:15:12;;;;;;;0.20;0.20;;;14.90;99.90;;;;;;5010877;28;20033;-62
2022/04/15 01:17:39;;;;;;;0.10;0.10;;;14.90;99.90;;;;;;5009765;28;20026;-63
2022/04/15 01:20:07;;;;;;;0.10;0.10;;;14.90;99.90;;;;;;5012157;28;20033;-62
2022/04/15 01:22:38;;;;;;;0.00;0.00;;;14.90;99.90;;;;;;5009219;28;20176;-61
2022/04/15 01:25:09;;;;;;;0.20;0.20;;;14.90;99.90;;;;;;5010592;28;20022;-61
2022/04/15 01:27:38;;;;;;;0.00;0.00;;;14.80;99.90;;;;;;5009850;28;20052;-62
2022/04/15 01:30:07;;;;;;;0.10;0.10;;;14.90;99.90;;;;;;5009780;28;20135;-61
2022/04/15 01:32:32;;;;;;;0.00;0.00;;;14.90;99.90;;;;;;5009236;28;20034;-62
2022/04/15 01:34:58;;;;;;;0.15;0.15;;;14.80;99.90;;;;;;5010940;28;20405;-62
2022/04/15 01:37:24;;;;;;;0.10;0.10;;;14.80;99.90;;;;;;5009034;28;20026;-61
2022/04/15 01:39:50;;;;;;;0.10;0.10;;;14.80;99.90;;;;;;4998614;28;20073;-61
2022/04/15 01:42:17;;;;;;;0.00;0.00;;;14.80;99.90;;;;;;5009123;28;20108;-62
2022/04/15 01:44:43;;;;;;;0.20;0.20;;;14.70;99.90;;;;;;5010324;28;20022;-62
2022/04/15 01:47:10;;;;;;;0.00;0.00;;;14.70;99.90;;;;;;5010376;28;20492;-63
2022/04/15 01:49:37;;;;;;;0.10;0.10;;;14.70;99.90;;;;;;5012671;28;20040;-63
2022/04/15 01:52:03;;;;;;;0.00;0.00;;;14.70;99.90;;;;;;5008175;28;20060;-62
2022/04/15 01:54:29;;;;;;;0.10;0.10;;;14.70;99.90;;;;;;5007853;28;20025;-63
2022/04/15 01:56:56;;;;;;;0.05;0.05;;;14.60;99.90;;;;;;4990701;28;20037;-61
2022/04/15 01:59:22;;;;;;;0.10;0.10;;;14.70;99.90;;;;;;5001206;28;20489;-62
2022/04/15 02:01:48;;;;;;;0.00;0.00;;;14.60;99.90;;;;;;5007792;28;20041;-62
2022/04/15 02:04:14;;;;;;;0.03;0.03;;;14.60;99.90;;;;;;5011018;28;20030;-64
2022/04/15 02:06:39;;;;;;;0.00;0.00;;;14.60;99.90;;;;;;5007563;28;20125;-63
2022/04/15 02:09:05;;;;;;;0.00;0.00;;;14.60;99.90;;;;;;5003043;28;20041;-62
2022/04/15 02:11:31;;;;;;;0.00;0.00;;;14.60;99.90;;;;;;5009183;28;21056;-62
2022/04/15 02:13:57;;;;;;;0.10;0.10;;;14.60;99.90;;;;;;5008941;28;20077;-62
2022/04/15 02:16:22;;;;;;;0.00;0.00;;;14.50;99.90;;;;;;5009630;28;20469;-62
2022/04/15 02:18:48;;;;;;;0.10;0.10;;;14.50;99.90;;;;;;5002040;28;20406;-61
2022/04/15 02:21:14;;;;;;;0.00;0.00;;;14.50;99.90;;;;;;5008519;28;20014;-62
2022/04/15 02:23:39;;;;;;;0.10;0.10;;;14.40;99.90;;;;;;5008860;28;20367;-62
2022/04/15 02:26:05;;;;;;;0.00;0.00;;;14.40;99.90;;;;;;5009623;28;20018;-61
2022/04/15 02:28:30;;;;;;;0.10;0.10;;;14.40;99.90;;;;;;5007629;28;20022;-62
2022/04/15 02:30:56;;;;;;;0.00;0.00;;;14.40;99.90;;;;;;5006175;28;20160;-61
2022/04/15 02:33:22;;;;;;;0.00;0.00;;;14.40;99.90;;;;;;5008972;28;20040;-62
2022/04/15 02:35:48;;;;;;;0.00;0.00;;;14.40;99.90;;;;;;5009022;28;20030;-62
2022/04/15 02:38:13;;;;;;;0.10;0.10;;;14.30;99.90;;;;;;5009354;28;20034;-61
2022/04/15 02:40:39;;;;;;;0.00;0.00;;;14.30;99.90;;;;;;5008167;28;20474;-61
2022/04/15 02:43:06;;;;;;;0.10;0.10;;;14.30;99.90;;;;;;5009446;28;20482;-61
2022/04/15 02:45:32;;;;;;;0.00;0.00;;;14.20;99.90;;;;;;4989599;28;20889;-61
2022/04/15 02:47:58;;;;;;;0.10;0.10;;;14.30;99.90;;;;;;5009467;28;20029;-62
2022/04/15 02:50:24;;;;;;;0.00;0.00;;;14.20;99.90;;;;;;5008071;28;20037;-63
2022/04/15 02:52:50;;;;;;;0.03;0.03;;;14.20;99.90;;;;;;5008972;28;20062;-61
2022/04/15 02:55:16;;;;;;;0.10;0.10;;;14.20;99.90;;;;;;5009445;28;20214;-61
2022/04/15 02:57:41;;;;;;;0.10;0.10;;;14.10;99.90;;;;;;5007433;28;20485;-62
2022/04/15 03:00:08;;;;;;;0.10;0.10;;;14.10;99.90;;;;;;5008766;28;20022;-62
2022/04/15 03:02:34;;;;;;;0.10;0.10;;;14.10;99.90;;;;;;5007869;28;20109;-62
2022/04/15 03:05:00;;;;;;;0.00;0.00;;;14.10;99.90;;;;;;5010285;28;20040;-61
2022/04/15 03:07:26;;;;;;;0.00;0.00;;;14.00;99.90;;;;;;5009005;28;20021;-62
2022/04/15 03:09:51;;;;;;;0.00;0.00;;;14.00;99.90;;;;;;5008341;28;20029;-61
2022/04/15 03:12:17;;;;;;;0.00;0.00;;;14.00;99.90;;;;;;5004476;28;20025;-61
2022/04/15 03:14:43;;;;;;;0.00;0.00;;;14.00;99.90;;;;;;5007916;28;20049;-62
2022/04/15 03:17:09;;;;;;;0.03;0.03;;;13.90;99.90;;;;;;4991593;28;20034;-62
2022/04/15 03:19:35;;;;;;;0.00;0.00;;;13.90;99.90;;;;;;5007948;28;20037;-62
2022/04/15 03:22:00;;;;;;;0.00;0.00;;;13.90;99.90;;;;;;5011349;28;20022;-61
2022/04/15 03:24:26;;;;;;;0.00;0.00;;;13.90;99.90;;;;;;5012677;28;20117;-62
2022/04/15 03:26:51;;;;;;;0.00;0.00;;;13.90;99.90;;;;;;5012097;28;20072;-62
2022/04/15 03:29:17;;;;;;;0.00;0.00;;;13.90;99.90;;;;;;5012408;28;20378;-62
2022/04/15 03:31:43;;;;;;;0.00;0.00;;;13.90;99.90;;;;;;4994186;28;20038;-64
2022/04/15 03:34:09;;;;;;;0.10;0.10;;;13.80;99.90;;;;;;5012653;28;20060;-62
2022/04/15 03:36:35;;;;;;;0.15;0.15;;;13.90;99.90;;;;;;5010502;28;20030;-63
2022/04/15 03:39:00;;;;;;;0.10;0.10;;;13.90;99.90;;;;;;5012481;28;20038;-62
2022/04/15 03:41:26;;;;;;;0.10;0.10;;;13.90;99.90;;;;;;5011278;28;20018;-61
2022/04/15 03:43:52;;;;;;;0.35;0.35;;;13.90;99.90;;;;;;5011896;28;20026;-63
2022/04/15 03:46:18;;;;;;;0.00;0.00;;;13.80;99.90;;;;;;5012409;28;20018;-61
2022/04/15 03:48:44;;;;;;;0.00;0.00;;;13.90;99.90;;;;;;5012285;28;20489;-64
2022/04/15 03:51:11;;;;;;;0.10;0.10;;;13.70;99.90;;;;;;5012653;28;20010;-63
2022/04/15 03:53:37;;;;;;;0.00;0.00;;;13.70;99.90;;;;;;5010095;28;20017;-62
2022/04/15 03:56:03;;;;;;;0.10;0.10;;;13.60;99.90;;;;;;5012220;28;20034;-62
2022/04/15 03:58:29;;;;;;;0.00;0.00;;;13.60;99.90;;;;;;5011809;28;20144;-62
2022/04/15 04:00:55;;;;;;;0.00;0.00;;;13.60;99.90;;;;;;5006671;28;20105;-62
2022/04/15 04:03:21;;;;;;;0.00;0.00;;;13.60;99.90;;;;;;4992541;28;20019;-62
2022/04/15 04:05:46;;;;;;;0.00;0.00;;;13.50;99.90;;;;;;5003501;28;20022;-62
2022/04/15 04:08:12;;;;;;;0.10;0.10;;;13.50;99.90;;;;;;5011215;28;20474;-62
2022/04/15 04:10:38;;;;;;;0.10;0.10;;;13.50;99.90;;;;;;5011016;28;20042;-62
2022/04/15 04:13:04;;;;;;;0.00;0.00;;;13.50;99.90;;;;;;5011821;28;20048;-62
2022/04/15 04:15:31;;;;;;;0.10;0.10;;;13.50;99.90;;;;;;4994403;28;20080;-61
2022/04/15 04:17:57;;;;;;;0.10;0.10;;;13.50;99.90;;;;;;5011088;28;20037;-62
2022/04/15 04:20:23;;;;;;;0.10;0.10;;;13.50;99.90;;;;;;5012703;28;20029;-63
2022/04/15 04:22:49;;;;;;;0.03;0.03;;;13.50;99.90;;;;;;5011758;28;20029;-61
2022/04/15 04:25:15;;;;;;;0.00;0.00;;;13.40;99.90;;;;;;5011675;28;20045;-62
2022/04/15 04:27:42;;;;;;;0.00;0.00;;;13.30;99.90;;;;;;5007178;28;20049;-61
2022/04/15 04:30:10;;;;;;;0.10;0.10;;;13.80;99.90;;;;;;5003091;28;20034;-63
2022/04/15 04:32:36;;;;;;;0.00;0.00;;;13.20;99.90;;;;;;5011267;28;20026;-64
2022/04/15 04:35:03;;;;;;;0.03;0.03;;;13.20;99.90;;;;;;5010604;28;20835;-63
2022/04/15 04:37:29;;;;;;;0.10;0.10;;;13.10;99.90;;;;;;5011264;28;20034;-65
2022/04/15 04:39:54;;;;;;;0.08;0.08;;;13.20;99.90;;;;;;5010838;28;20022;-62
2022/04/15 04:42:22;;;;;;;0.00;0.00;;;13.20;99.90;;;;;;5011412;28;20032;-63
2022/04/15 04:44:48;;;;;;;0.10;0.10;;;13.20;99.90;;;;;;5010440;28;20536;-62
2022/04/15 04:47:14;;;;;;;0.10;0.10;;;13.20;99.90;;;;;;5011435;28;20040;-63
2022/04/15 04:49:40;;;;;;;0.00;0.00;;;13.20;99.90;;;;;;5010945;28;20022;-62
2022/04/15 04:52:06;;;;;;;0.00;0.00;;;13.20;99.90;;;;;;5011264;28;20030;-62
2022/04/15 04:54:32;;;;;;;0.00;0.00;;;13.20;99.90;;;;;;5025506;28;20481;-63
2022/04/15 04:56:58;;;;;;;0.00;0.00;;;13.20;99.90;;;;;;5006570;28;20036;-61
2022/04/15 04:59:29;;;;;;;0.00;0.00;;;13.20;99.90;;;;;;4991542;28;20497;-62
2022/04/15 05:01:55;;;;;;;0.10;0.10;;;13.60;99.90;;;;;;5002861;28;20118;-63
2022/04/15 05:04:21;;;;;;;0.10;0.10;;;13.20;99.90;;;;;;5010793;28;20105;-63
2022/04/15 05:06:46;;;;;;;0.00;0.00;;;13.30;99.90;;;;;;5012786;28;20022;-64
2022/04/15 05:09:12;;;;;;;0.10;0.10;;;13.30;99.90;;;;;;5009765;28;20536;-62
2022/04/15 05:11:38;;;;;;;0.10;0.10;;;13.40;99.90;;;;;;5007025;28;20533;-63
2022/04/15 05:14:04;;;;;;;0.10;0.10;;;13.20;99.90;;;;;;4994881;28;20041;-62
2022/04/15 05:16:30;;;;;;;0.00;0.00;;;13.30;99.90;;;;;;5006686;28;20029;-63
2022/04/15 05:18:56;;;;;;;0.00;0.00;;;13.20;99.90;;;;;;5005203;28;20029;-62
2022/04/15 05:21:22;;;;;;;0.10;0.10;;;13.20;99.90;;;;;;5008415;28;20021;-63
2022/04/15 05:23:47;;;;;;;0.10;0.10;;;13.20;99.90;;;;;;5011103;28;20052;-63
2022/04/15 05:26:13;;;;;;;0.00;0.00;;;13.20;99.90;;;;;;5010596;28;20413;-63
2022/04/15 05:28:41;;;;;;;0.00;0.00;;;13.20;99.90;;;;;;5010520;28;20046;-62
2022/04/15 05:31:07;;;;;;;0.00;0.00;;;13.20;99.90;;;;;;5009338;28;20073;-62
2022/04/15 05:33:32;;;;;;;0.10;0.10;;;13.20;99.90;;;;;;5011964;28;20469;-61
2022/04/15 05:35:58;;;;;;;0.10;0.10;;;13.30;99.90;;;;;;5004537;28;20475;-62
2022/04/15 05:38:24;;;;;;;0.10;0.10;;;13.30;99.90;;;;;;5007515;28;20049;-63
2022/04/15 05:40:50;;;;;;;0.10;0.10;;;13.40;99.90;;;;;;5009817;28;20041;-64
2022/04/15 05:43:16;;;;;;;0.03;0.03;;;13.40;99.90;;;;;;5009534;28;20022;-62
2022/04/15 05:45:41;;;;;;;0.00;0.00;;;13.40;99.90;;;;;;5010205;28;20470;-62
2022/04/15 05:48:07;;;;;;;0.00;0.00;;;13.40;99.90;;;;;;5007894;28;20030;-62
2022/04/15 05:50:33;;;;;;;0.00;0.00;;;13.40;99.90;;;;;;5009777;28;20545;-62
2022/04/15 05:52:58;;;;;;;0.10;0.10;;;13.40;99.90;;;;;;5005387;28;20025;-62
2022/04/15 05:55:24;;;;;;;0.10;0.10;;;13.50;99.90;;;;;;5001154;28;20106;-60
2022/04/15 05:57:49;;;;;;;1.65;1.55;;;13.50;99.90;;;;;;5009698;28;20040;-61
2022/04/15 06:00:15;;;;;;;0.10;0.10;;;13.60;99.90;;;;;;5008469;28;20074;-61
2022/04/15 06:02:41;;;;;;;0.10;0.10;;;13.60;99.90;;;;;;5009309;28;20469;-63
2022/04/15 06:05:07;;;;;;;0.10;0.10;;;13.70;99.90;;;;;;5009453;28;20683;-63
2022/04/15 06:07:33;;;;;;;0.00;0.00;;;13.80;99.90;;;;;;5011439;28;20054;-62
2022/04/15 06:09:58;;;;;;;0.10;0.10;;;13.90;99.90;;;;;;5007461;28;20076;-61
2022/04/15 06:15:31;;;;;;;0.00;0.00;;;14.00;99.90;;;;;;4990573;28;20041;-65
2022/04/15 06:17:57;;;;;;;0.00;0.00;;;14.10;99.90;;;;;;4991120;28;20027;-62
2022/04/15 06:20:23;;;;;;;0.00;0.00;;;14.10;99.90;;;;;;5008934;28;20029;-63
2022/04/15 06:22:49;;;;;;;0.30;0.30;;;14.30;99.90;;;;;;5011308;28;20029;-62
2022/04/15 06:25:15;;;;;;;0.00;0.00;;;14.30;99.90;;;;;;5009496;28;20014;-62
2022/04/15 06:27:40;;;;;;;0.08;0.08;;;14.30;99.90;;;;;;4997127;28;20034;-63
2022/04/15 06:30:07;;;;;;;0.00;0.00;;;14.30;99.90;;;;;;4989723;28;20034;-62
2022/04/15 06:32:34;;;;;;;0.00;0.00;;;14.40;99.90;;;;;;4990212;28;20092;-63
2022/04/15 06:34:59;;;;;;;0.00;0.00;;;14.40;99.90;;;;;;4993343;28;20552;-64
2022/04/15 06:37:25;;;;;;;0.10;0.10;;;14.50;99.90;;;;;;5008398;28;20029;-62
2022/04/15 06:39:51;;;;;;;0.10;0.10;;;14.60;99.90;;;;;;5009006;28;20105;-63
2022/04/15 06:42:27;;;;;;;0.10;0.10;;;14.70;99.90;;;;;;5008919;28;20375;-63
2022/04/15 06:44:53;;;;;;;0.00;0.00;;;14.80;99.90;;;;;;5002462;28;20029;-63
2022/04/15 06:47:19;;;;;;;0.00;0.00;;;14.80;99.90;;;;;;5009500;28;20018;-63
2022/04/15 06:49:45;;;;;;;0.00;0.00;;;15.00;99.90;;;;;;5008993;28;20172;-62
2022/04/15 06:52:12;;;;;;;0.00;0.00;;;14.90;99.90;;;;;;5008668;28;20034;-61
2022/04/15 06:54:38;;;;;;;0.00;0.00;;;15.00;99.90;;;;;;5011512;28;20041;-62
2022/04/15 06:57:04;;;;;;;0.10;0.10;;;15.10;99.90;;;;;;5013606;28;20237;-61
2022/04/15 06:59:29;;;;;;;0.00;0.00;;;15.00;99.90;;;;;;5013610;28;20048;-61
2022/04/15 07:01:56;;;;;;;0.00;0.00;;;15.10;99.90;;;;;;4998793;28;20478;-63
2022/04/15 07:04:23;;;;;;;0.10;0.10;;;15.20;99.90;;;;;;4997733;28;20044;-63
2022/04/15 07:06:49;;;;;;;0.00;0.00;;;15.40;99.90;;;;;;5013136;28;20100;-63
2022/04/15 07:09:15;;;;;;;0.30;0.30;;;15.50;99.90;;;;;;5013770;28;20037;-64
2022/04/15 07:11:41;;;;;;;0.00;0.00;;;15.60;99.90;;;;;;5012999;28;20026;-63
2022/04/15 07:14:06;;;;;;;0.10;0.10;;;15.50;99.90;;;;;;5012842;28;20050;-61
2022/04/15 07:16:34;;;;;;;0.10;0.10;;;15.60;99.90;;;;;;5013382;28;20080;-63
2022/04/15 07:19:04;;;;;;;0.00;0.00;;;15.60;99.90;;;;;;5007243;28;20025;-63
2022/04/15 07:21:34;;;;;;;0.10;0.10;;;15.80;99.90;;;;;;5012487;28;20102;-64
2022/04/15 07:24:00;;;;;;;0.03;0.03;;;15.90;99.90;;;;;;5014590;28;20025;-62
2022/04/15 07:26:26;;;;;;;0.05;0.05;;;16.10;99.90;;;;;;5012168;28;20042;-64
2022/04/15 07:28:51;;;;;;;0.10;0.10;;;16.10;99.90;;;;;;5012748;28;20026;-66
2022/04/15 07:31:17;;;;;;;0.00;0.00;;;16.20;99.90;;;;;;5013520;28;20025;-63
2022/04/15 07:33:42;;;;;;;0.00;0.00;;;16.20;99.90;;;;;;5013457;28;20053;-69
2022/04/15 07:36:31;;;;;;;0.10;0.10;;;16.30;99.90;;;;;;5010445;28;20501;-64
2022/04/15 07:38:53;;;;;;;0.05;0.05;;;16.30;99.90;;;;;;5011761;28;20543;-63
2022/04/15 07:41:19;;;;;;;0.10;0.10;;;16.30;99.90;;;;;;5012156;28;20045;-62
2022/04/15 07:43:45;;;;;;;0.00;0.00;;;16.40;99.90;;;;;;5012057;28;20040;-62
2022/04/15 07:46:11;;;;;;;0.00;0.00;;;16.60;99.90;;;;;;5005284;23;20509;-60
2022/04/15 07:48:37;;;;;;;0.00;0.00;;;16.50;99.90;;;;;;5008731;28;20172;-61
2022/04/15 07:51:03;;;;;;;0.52;0.52;;;16.70;99.90;;;;;;5011814;28;20540;-60
2022/04/15 07:53:29;;;;;;;0.22;0.22;;;16.80;99.90;;;;;;5010558;28;20030;-60
2022/04/15 07:55:55;;;;;;;0.00;0.00;;;16.80;99.90;;;;;;5002320;28;20065;-62
2022/04/15 07:58:20;;;;;;;0.00;0.00;;;16.90;99.90;;;;;;5004756;28;20153;-61
2022/04/15 08:00:46;;;;;;;0.00;0.00;;;16.90;99.90;;;;;;5010585;28;20026;-60
2022/04/15 08:03:14;;;;;;;0.20;0.20;;;17.00;99.90;;;;;;5012740;28;20452;-63
2022/04/15 08:05:40;;;;;;;0.00;0.00;;;17.00;99.90;;;;;;5001885;28;20041;-61
2022/04/15 08:08:06;;;;;;;0.30;0.30;;;17.10;99.90;;;;;;4992629;28;20034;-61
2022/04/15 08:10:32;;;;;;;0.00;0.00;;;17.20;99.90;;;;;;5002906;28;20026;-59
2022/04/15 08:12:57;;;;;;;0.00;0.00;;;17.30;99.90;;;;;;4999912;28;20478;-61
2022/04/15 08:15:23;;;;;;;0.00;0.00;;;17.50;99.90;;;;;;5003644;28;20067;-60
2022/04/15 08:17:48;;;;;;;1.55;1.45;;;17.50;99.90;;;;;;5011159;28;20076;-60
2022/04/15 08:20:14;;;;;;;0.00;0.00;;;17.50;99.90;;;;;;5003528;28;20022;-61
2022/04/15 08:22:40;;;;;;;0.00;0.00;;;17.50;99.90;;;;;;5010571;28;20072;-62
2022/04/15 08:25:07;;;;;;;0.00;0.00;;;17.60;99.90;;;;;;5001138;28;20454;-61
2022/04/15 08:27:33;;;;;;;0.00;0.00;;;17.60;99.90;;;;;;5000278;28;20026;-59
2022/04/15 08:29:59;;;;;;;0.00;0.00;;;17.60;99.90;;;;;;5003242;28;20030;-60
2022/04/15 08:32:26;;;;;;;0.00;0.00;;;17.80;99.90;;;;;;5000368;28;20037;-61
2022/04/15 08:34:52;;;;;;;0.00;0.00;;;17.80;99.90;;;;;;5004252;28;20489;-59
2022/04/15 08:37:17;;;;;;;0.10;0.10;;;18.00;99.90;;;;;;4992400;28;20057;-59
2022/04/15 08:39:43;;;;;;;1.95;0.90;;;18.00;99.90;;;;;;4994972;28;20485;-64
2022/04/15 08:42:09;;;;;;;0.80;0.80;;;18.00;99.90;;;;;;4998118;28;20105;-61
2022/04/15 08:44:35;;;;;;;0.30;0.30;;;17.90;99.90;;;;;;4996633;28;20032;-61
2022/04/15 08:47:07;;;;;;;0.00;0.00;;;17.90;99.90;;;;;;5010353;28;20208;-63
2022/04/15 08:49:34;;;;;;;0.00;0.00;;;18.00;99.90;;;;;;5008527;28;20056;-61
2022/04/15 08:52:01;;;;;;;0.10;0.10;;;18.00;99.90;;;;;;4990588;28;20045;-62
2022/04/15 08:54:26;;;;;;;0.43;0.43;;;18.10;99.90;;;;;;4992554;28;20046;-60
2022/04/15 08:56:52;;;;;;;0.00;0.00;;;18.20;99.90;;;;;;4998363;28;20066;-60
2022/04/15 08:59:18;;;;;;;0.00;0.00;;;18.30;99.90;;;;;;4992590;28;20035;-61
2022/04/15 09:01:43;;;;;;;0.00;0.00;;;18.40;99.90;;;;;;4991845;28;20030;-59
2022/04/15 09:04:09;;;;;;;0.10;0.10;;;18.50;99.90;;;;;;4991506;28;20054;-62
2022/04/15 09:06:35;;;;;;;0.10;0.10;;;18.50;99.90;;;;;;4991508;28;20026;-60
2022/04/15 09:09:11;;;;;;;0.10;0.10;;;18.50;99.90;;;;;;4995764;28;20022;-60
2022/04/15 09:11:38;;;;;;;0.10;0.10;;;18.40;99.90;;;;;;5001059;28;20512;-60
2022/04/15 09:14:12;;;;;;;0.00;0.00;;;18.30;99.90;;;;;;4991416;28;20026;-60
2022/04/15 09:16:47;;;;;;;0.00;0.00;;;18.30;99.90;;;;;;4993443;28;20022;-60
2022/04/15 09:19:13;;;;;;;0.00;0.00;;;18.40;99.90;;;;;;4991301;28;20092;-61
2022/04/15 09:21:41;;;;;;;0.00;0.00;;;18.60;99.90;;;;;;4991280;28;20470;-62
2022/04/15 09:24:08;;;;;;;0.00;0.00;;;18.60;99.90;;;;;;4996256;28;20027;-60
2022/04/15 09:26:36;;;;;;;0.00;0.00;;;18.90;99.90;;;;;;5000329;28;20058;-61
2022/04/15 09:29:02;;;;;;;0.90;0.50;;;19.00;99.90;;;;;;5010665;28;20034;-60
2022/04/15 09:31:28;;;;;;;0.00;0.00;;;19.00;99.90;;;;;;5006742;28;20030;-60
2022/04/15 09:34:01;;;;;;;0.05;0.05;;;19.20;99.90;;;;;;4998361;28;20026;-59
2022/04/15 09:36:26;;;;;;;0.10;0.10;;;19.20;99.90;;;;;;4999031;28;20022;-59
2022/04/15 09:39:04;;;;;;;0.00;0.00;;;19.20;99.90;;;;;;4996585;28;20037;-59
2022/04/15 09:41:29;;;;;;;0.00;0.00;;;19.20;99.90;;;;;;4997592;28;20061;-59
2022/04/15 09:44:00;;;;;;;0.03;0.03;;;19.10;99.90;;;;;;5005527;28;20057;-58
2022/04/15 09:46:27;;;;;;;0.00;0.00;;;19.20;99.90;;;;;;4997742;28;20034;-62
2022/04/15 09:49:03;;;;;;;0.00;0.00;;;19.20;99.90;;;;;;4998224;28;20018;-60
2022/04/15 09:51:33;;;;;;;0.13;0.13;;;19.20;99.90;;;;;;5005309;28;20462;-59
2022/04/15 09:54:01;;;;;;;0.00;0.00;;;19.10;99.90;;;;;;4996450;28;20030;-60
2022/04/15 09:56:28;;;;;;;0.25;0.25;;;19.20;99.90;;;;;;4999833;28;20193;-61
2022/04/15 09:58:59;;;;;;;0.00;0.00;;;19.40;99.90;;;;;;4995030;28;20164;-59
2022/04/15 10:01:28;;;;;;;0.00;0.00;;;19.60;99.90;;;;;;4999450;28;20032;-61
2022/04/15 10:03:55;;;;;;;0.47;0.47;;;19.70;99.90;;;;;;4999280;28;20022;-60
2022/04/15 10:06:21;;;;;;;0.00;0.00;;;19.80;99.90;;;;;;4999257;28;20056;-60
2022/04/15 10:08:48;;;;;;;0.10;0.10;;;19.70;99.90;;;;;;4995821;28;20478;-61
2022/04/15 10:11:15;;;;;;;0.00;0.00;;;19.50;99.90;;;;;;4996446;28;20026;-61
2022/04/15 10:13:44;;;;;;;0.00;0.00;;;19.60;99.90;;;;;;5000783;28;20037;-61
2022/04/15 10:16:11;;;;;;;0.00;0.00;;;19.80;99.90;;;;;;4998060;28;20060;-62
2022/04/15 10:18:37;;;;;;;0.00;0.00;;;19.90;99.90;;;;;;5000163;28;20097;-60
2022/04/15 10:21:05;;;;;;;0.00;0.00;;;20.00;99.90;;;;;;4996652;28;20469;-61
2022/04/15 10:23:31;;;;;;;0.03;0.03;;;20.00;99.90;;;;;;4996433;28;20026;-61
2022/04/15 10:26:01;;;;;;;0.00;0.00;;;20.20;99.90;;;;;;4996142;28;20027;-62
2022/04/15 10:28:47;;;;;;;0.10;0.10;;;20.30;99.90;;;;;;4995806;28;20021;-60
2022/04/15 10:31:16;;;;;;;0.10;0.10;;;20.20;99.90;;;;;;4998340;28;20058;-61
2022/04/15 10:33:43;;;;;;;0.10;0.10;;;19.90;99.90;;;;;;4995970;28;20033;-61
2022/04/15 10:36:24;;;;;;;0.00;0.00;;;19.80;99.90;;;;;;4998291;28;20048;-60
2022/04/15 10:39:09;;;;;;;0.00;0.00;;;19.90;99.90;;;;;;4998943;28;20017;-61
2022/04/15 10:41:46;;;;;;;0.00;0.00;;;20.00;99.90;;;;;;4996635;28;20032;-64
2022/04/15 10:44:35;;;;;;;0.00;0.00;;;20.10;99.90;;;;;;4999611;28;20061;-63
2022/04/15 10:47:04;;;;;;;0.10;0.10;;;20.20;99.90;;;;;;5001167;28;20037;-64
2022/04/15 10:49:33;;;;;;;0.00;0.00;;;20.40;99.90;;;;;;4994159;28;20026;-63
2022/04/15 10:52:01;;;;;;;0.00;0.00;;;20.70;99.30;;;;;;4995459;28;20052;-63
2022/04/15 10:54:36;;;;;;;0.03;0.03;;;20.80;98.90;;;;;;5002411;28;20549;-64
2022/04/15 10:57:03;;;;;;;0.00;0.00;;;20.60;99.70;;;;;;5001201;28;20072;-63
2022/04/15 11:02:18;;;;;;;0.00;0.00;;;20.20;99.00;;;;;;5007529;28;20387;-63
2022/04/15 11:04:49;;;;;;;0.00;0.00;;;19.80;99.80;;;;;;5000951;28;20019;-64
2022/04/15 11:07:39;;;;;;;0.00;0.00;;;19.80;99.90;;;;;;5001772;28;20101;-63
2022/04/15 11:10:16;;;;;;;0.00;0.00;;;20.00;99.90;;;;;;5001161;28;20072;-63
2022/04/15 11:12:45;;;;;;;0.00;0.00;;;20.20;96.00;;;;;;5005297;28;20499;-63
2022/04/15 11:15:12;;;;;;;0.00;0.00;;;20.30;94.40;;;;;;5003839;28;20034;-62
2022/04/15 11:17:39;;;;;;;0.10;0.10;;;20.30;94.00;;;;;;5000716;28;20076;-64
2022/04/15 11:20:08;;;;;;;0.32;0.30;;;20.60;93.40;;;;;;5005417;28;20097;-63
2022/04/15 11:22:42;;;;;;;0.00;0.00;;;20.80;93.70;;;;;;5002003;28;20026;-64
2022/04/15 11:25:09;;;;;;;;;;;20.80;94.20;;;;;;4989371;28;20549;-63
2022/04/15 11:27:39;;;;;;;0.00;0.00;;;20.80;92.70;;;;;;4990796;28;19989;-64
2022/04/15 11:30:16;;;;;;;0.00;0.00;;;20.60;93.00;;;;;;5001576;28;20022;-63
2022/04/15 11:32:49;;;;;;;0.10;0.10;;;20.70;92.70;;;;;;4996768;28;20117;-64
2022/04/15 11:35:33;;;;;;;0.03;0.03;;;20.90;92.60;;;;;;4988765;28;20018;-64
2022/04/15 11:38:03;;;;;;;0.00;0.00;;;20.90;92.30;;;;;;4992333;28;20113;-64
2022/04/15 11:40:34;;;;;;;0.00;0.00;;;20.80;93.70;;;;;;4994375;28;20026;-64
2022/04/15 11:43:00;;;;;;;0.00;0.00;;;20.70;93.20;;;;;;5000125;28;20521;-63
2022/04/15 11:45:37;;;;;;;0.00;0.00;;;20.40;93.30;;;;;;5012500;28;20160;-64
2022/04/15 11:48:15;;;;;;;0.00;0.00;;;20.50;93.70;;;;;;4996790;28;20110;-63
2022/04/15 11:50:41;;;;;;;0.20;0.20;;;20.50;93.30;;;;;;5007608;28;20036;-65
2022/04/15 11:53:07;;;;;;;0.00;0.00;;;20.60;92.90;;;;;;5001220;28;20157;-64
2022/04/15 11:55:34;;;;;;;0.00;0.00;;;20.80;91.90;;;;;;4992211;28;20490;-65
2022/04/15 11:58:00;;;;;;;0.00;0.00;;;20.90;92.00;;;;;;5001215;28;20169;-64
2022/04/15 12:00:26;;;;;;;0.00;0.00;;;20.90;92.20;;;;;;4999477;28;20033;-67
2022/04/15 12:03:01;;;;;;;0.00;0.00;;;20.70;91.70;;;;;;5004733;28;20133;-66
2022/04/15 12:05:27;;;;;;;0.00;0.00;;;21.00;90.50;;;;;;5009203;28;20049;-66
2022/04/15 12:07:52;;;;;;;0.00;0.00;;;21.00;88.90;;;;;;5000341;28;20869;-65
2022/04/15 12:10:20;;;;;;;0.00;0.00;;;20.80;89.00;;;;;;4998062;28;20037;-65
2022/04/15 12:12:46;;;;;;;0.00;0.00;;;21.10;88.20;;;;;;5006352;28;20025;-66
2022/04/15 12:15:13;;;;;;;0.00;0.00;;;21.00;86.30;;;;;;4999319;28;20029;-65
2022/04/15 12:17:40;;;;;;;0.00;0.00;;;21.20;87.70;;;;;;5007949;28;20393;-65
2022/04/15 12:20:06;;;;;;;0.08;0.08;;;21.00;86.40;;;;;;5002416;28;20030;-66
2022/04/15 12:22:32;;;;;;;0.00;0.00;;;20.70;87.10;;;;;;4992374;28;20030;-66
2022/04/15 12:31:01;;;;;;;0.10;0.10;;;20.90;85.00;;;;;;5004269;28;20555;-65
2022/04/15 12:33:28;;;;;;;0.00;0.00;;;21.30;84.20;;;;;;5005067;28;20022;-64
2022/04/15 12:36:01;;;;;;;0.00;0.00;;;21.50;82.90;;;;;;4999374;28;20029;-66
2022/04/15 12:38:27;;;;;;;0.00;0.00;;;21.50;82.70;;;;;;4996641;28;20032;-67
2022/04/15 12:41:00;;;;;;;0.20;0.20;;;21.70;80.00;;;;;;5007232;28;20049;-65
2022/04/15 12:43:25;;;;;;;0.00;0.00;;;22.60;77.10;;;;;;5002235;28;20037;-64
2022/04/15 12:45:53;;;;;;;0.00;0.00;;;24.30;70.30;;;;;;5006050;28;20506;-65
2022/04/15 12:48:20;;;;;;;0.00;0.00;;;25.50;64.90;;;;;;5006424;28;20097;-66
2022/04/15 12:50:54;;;;;;;0.00;0.00;;;25.60;63.40;;;;;;5002473;28;20025;-65
2022/04/15 12:53:21;;;;;;;0.00;0.00;;;25.80;61.40;;;;;;5000615;28;20038;-65
2022/04/15 12:55:49;;;;;;;0.20;0.20;;;25.40;61.10;;;;;;5004146;28;20027;-65
2022/04/15 12:58:25;;;;;;;0.00;0.00;;;24.50;62.00;;;;;;4991872;28;20490;-65
2022/04/15 13:00:54;;;;;;;0.10;0.10;;;24.00;63.80;;;;;;5000624;28;20024;-64